Terminal Aerodrome Forecast
Issued by NWS Upton, NY

Home | Current Version | Previous Version | Text Only | Print | Product List | Glossary On
Versions: 1 2 3 4 5 6 7 8 9 10 11 12 13 14 15 16 17 18 19 20 21 22 23 24
169
FTUS41 KOKX 082320
TAFBDR
TAF
KBDR 082320Z 0900/0924 03007KT 3SM -SN BR BKN015 OVC040
     FM090400 04006KT 6SM BR SCT008 OVC015
     FM091100 03009KT P6SM SCT008 OVC015
     FM091500 04011KT P6SM OVC015
     FM092200 07006KT P6SM OVC015=

USA.gov is the U.S. government's official web portal to all federal, state and local government web resources and services.